Time;durP1;ratioP1;P1;durP2;ratioP2;P2;SDS_P1;SDS_P2;PMS_P1;PMS_P2;Temp;Humidity;BMP_temperature;BMP_pressure;BME280_temperature;BME280_humidity;BME280_pressure;Samples;Min_cycle;Max_cycle;Signal;HPM_P1;HPM_P2
2022/02/05 00:01:16;;;;;;;35.50;22.60;;;;;;;-4.57;71.85;97250.80;110220;1247;72322;-65
2022/02/05 00:03:49;;;;;;;25.80;16.50;;;;;;;-4.59;71.44;97245.71;110438;1247;68701;-65
2022/02/05 00:06:22;;;;;;;17.20;12.10;;;;;;;-4.62;69.71;97244.91;110106;1247;68463;-65
2022/02/05 00:11:48;;;;;;;20.70;12.70;;;;;;;-4.66;69.44;97251.10;110126;1247;60459;-65
2022/02/05 00:41:33;;;;;;;20.70;12.80;;;;;;;-4.79;72.68;97277.83;110219;1246;72393;-65
2022/02/05 00:44:04;;;;;;;62.50;37.50;;;;;;;-4.80;72.73;97280.20;110299;1247;67836;-65
2022/02/05 00:46:37;;;;;;;35.10;23.10;;;;;;;-4.91;73.26;97273.73;110296;1246;69332;-65
2022/02/05 00:49:07;;;;;;;39.20;23.30;;;;;;;-4.96;71.82;97272.61;110282;1247;60476;-65
2022/02/05 00:51:51;;;;;;;28.80;18.50;;;;;;;-5.00;71.51;97268.59;110302;1247;60950;-64
2022/02/05 00:54:24;;;;;;;39.60;23.70;;;;;;;-5.10;74.03;97266.67;110365;1247;70886;-66
2022/02/05 00:59:34;;;;;;;50.10;30.40;;;;;;;-5.22;72.44;97274.65;110190;1248;68717;-65
2022/02/05 01:02:04;;;;;;;34.60;22.90;;;;;;;-5.30;74.51;97267.27;109997;1247;60563;-64
2022/02/05 01:04:34;;;;;;;27.00;18.80;;;;;;;-5.34;75.96;97271.92;110147;1247;60561;-65
2022/02/05 01:07:03;;;;;;;27.60;17.10;;;;;;;-5.34;74.81;97273.10;110341;1247;72431;-65
2022/02/05 01:09:33;;;;;;;44.90;27.00;;;;;;;-5.34;74.06;97271.58;110374;1247;67953;-65
2022/02/05 01:12:04;;;;;;;52.60;34.10;;;;;;;-5.42;76.74;97268.77;110163;1247;67879;-65
2022/02/05 01:14:43;;;;;;;45.60;27.70;;;;;;;-5.52;78.06;97273.32;110423;1247;60473;-64
2022/02/05 01:17:14;;;;;;;35.60;23.50;;;;;;;-5.56;77.23;97273.52;110224;1244;60412;-66
2022/02/05 01:22:26;;;;;;;21.00;13.30;;;;;;;-5.59;75.49;97263.88;110478;1247;67691;-65
2022/02/05 01:24:55;;;;;;;27.00;16.40;;;;;;;-5.58;73.98;97260.46;110306;1247;69353;-64
2022/02/05 01:30:28;;;;;;;34.20;20.70;;;;;;;-5.47;73.96;97253.72;110216;1247;60497;-66
2022/02/05 01:52:32;;;;;;;32.40;20.20;;;;;;;-5.67;75.20;97245.46;110090;1247;68767;-64
2022/02/05 01:55:12;;;;;;;31.10;19.20;;;;;;;-5.67;76.81;97244.79;110237;1245;60572;-64
2022/02/05 02:05:40;;;;;;;22.10;16.50;;;;;;;-5.61;75.07;97244.21;110234;1246;68440;-66
2022/02/05 02:11:28;;;;;;;24.60;15.50;;;;;;;-5.64;75.62;97244.57;110150;1247;60483;-64
2022/02/05 02:14:32;;;;;;;22.10;15.50;;;;;;;-5.68;75.46;97248.52;110182;1248;72253;-64
2022/02/05 02:27:47;;;;;;;26.30;17.70;;;;;;;-5.66;76.37;97234.59;110108;1247;71541;-65
2022/02/05 02:30:24;;;;;;;28.60;17.50;;;;;;;-5.63;76.64;97239.30;110329;1247;68639;-65
2022/02/05 02:33:13;;;;;;;28.20;16.50;;;;;;;-5.60;76.81;97233.99;110221;1246;68504;-65
2022/02/05 02:35:47;;;;;;;22.10;13.70;;;;;;;-5.56;76.07;97233.11;110075;1247;60473;-65
2022/02/05 02:38:22;;;;;;;17.40;10.80;;;;;;;-5.53;75.14;97228.65;110160;1247;60515;-64
2022/02/05 02:41:04;;;;;;;25.00;15.20;;;;;;;-5.50;75.37;97227.77;110149;1247;72329;-65
2022/02/05 02:43:35;;;;;;;17.50;11.40;;;;;;;-5.47;74.53;97228.06;110364;1246;67813;-64
2022/02/05 02:46:05;;;;;;;22.30;14.40;;;;;;;-5.43;74.14;97231.09;110276;1245;68629;-65
2022/02/05 02:48:36;;;;;;;;;;;;;;;-5.42;76.22;97229.52;110496;1244;60476;-64
2022/02/05 02:59:10;;;;;;;16.80;11.00;;;;;;;-5.28;76.96;97223.59;110340;1246;69305;-65
2022/02/05 03:01:43;;;;;;;18.60;14.90;;;;;;;-5.18;74.94;97220.89;110178;1247;60532;-64
2022/02/05 03:04:12;;;;;;;24.70;16.30;;;;;;;-5.20;74.21;97220.41;110231;1247;60502;-66
2022/02/05 03:06:42;;;;;;;20.10;13.60;;;;;;;-5.29;74.23;97218.16;110093;1247;72413;-64
2022/02/05 03:09:12;;;;;;;19.60;13.00;;;;;;;-5.31;73.92;97217.52;110137;1245;68589;-64
2022/02/05 03:11:42;;;;;;;20.30;12.50;;;;;;;-5.37;74.39;97219.28;110404;1247;69520;-64
2022/02/05 03:14:12;;;;;;;27.40;16.30;;;;;;;-5.45;74.80;97219.89;110167;1246;60551;-66
2022/02/05 03:16:48;;;;;;;23.10;15.50;;;;;;;-5.52;75.39;97224.58;110410;1244;60492;-64
2022/02/05 03:19:19;;;;;;;27.20;18.60;;;;;;;-5.61;75.76;97220.43;110229;1246;72271;-64
2022/02/05 03:21:48;;;;;;;17.90;13.40;;;;;;;-5.69;75.94;97223.08;110440;1244;67838;-64
2022/02/05 03:24:18;;;;;;;23.80;15.60;;;;;;;-5.73;75.18;97226.69;110163;1247;68911;-64
2022/02/05 03:26:48;;;;;;;26.40;18.10;;;;;;;-5.78;75.93;97229.11;110146;1247;60546;-64
2022/02/05 03:29:18;;;;;;;27.90;19.90;;;;;;;-5.81;75.52;97228.81;110047;1247;60431;-64
2022/02/05 03:31:50;;;;;;;29.40;17.40;;;;;;;-5.83;75.74;97233.23;110095;1247;71422;-64
2022/02/05 03:34:21;;;;;;;25.50;15.90;;;;;;;-5.86;76.94;97228.36;110360;1245;68572;-64
2022/02/05 03:36:51;;;;;;;16.80;10.60;;;;;;;-5.87;76.91;97239.23;110369;1246;68624;-64
2022/02/05 03:39:21;;;;;;;13.30;10.30;;;;;;;-5.88;75.39;97228.88;110174;1245;60539;-64
2022/02/05 03:41:51;;;;;;;18.90;12.20;;;;;;;-5.88;75.65;97236.18;110373;1247;60455;-65
2022/02/05 03:44:20;;;;;;;17.10;10.90;;;;;;;-5.91;75.26;97234.20;109754;1251;72389;-64
2022/02/05 03:46:53;;;;;;;11.40;8.50;;;;;;;-5.95;75.05;97236.63;110057;1247;67553;-64
2022/02/05 03:49:23;;;;;;;24.40;15.70;;;;;;;-5.96;75.28;97242.92;110100;1247;68653;-65
2022/02/05 03:51:55;;;;;;;19.80;13.20;;;;;;;-6.01;76.72;97241.44;110115;1247;60494;-65
2022/02/05 03:54:28;;;;;;;14.90;10.60;;;;;;;-6.00;76.08;97247.04;110249;1247;60478;-66
2022/02/05 03:56:58;;;;;;;16.70;11.20;;;;;;;-5.95;74.85;97245.11;110233;1247;71384;-65
2022/02/05 03:59:29;;;;;;;13.20;8.70;;;;;;;-5.89;75.53;97244.85;110314;1244;67830;-65
2022/02/05 04:02:01;;;;;;;25.20;16.50;;;;;;;-5.79;75.33;97242.02;110245;1247;68676;-65
2022/02/05 04:04:31;;;;;;;19.90;12.80;;;;;;;-5.72;75.73;97238.72;110275;1245;60964;-67
2022/02/05 04:07:02;;;;;;;24.50;16.90;;;;;;;-5.64;74.84;97231.84;110120;1247;60435;-67
2022/02/05 04:09:41;;;;;;;28.80;18.70;;;;;;;-5.57;76.54;97229.90;110283;1247;71605;-64
2022/02/05 04:17:47;;;;;;;18.90;12.90;;;;;;;-5.32;75.68;97232.14;110000;1248;60526;-66
2022/02/05 04:20:17;;;;;;;17.30;12.80;;;;;;;-5.23;75.31;97232.86;110124;1247;60484;-65
2022/02/05 04:22:48;;;;;;;14.80;10.80;;;;;;;-5.15;75.56;97238.70;110312;1246;71475;-66
2022/02/05 04:25:17;;;;;;;11.90;8.00;;;;;;;-5.07;74.56;97251.34;110154;1247;69197;-66
2022/02/05 04:27:47;;;;;;;17.70;10.30;;;;;;;-5.00;73.90;97247.51;110231;1245;68585;-65
2022/02/05 04:30:17;;;;;;;20.70;12.80;;;;;;;-4.93;73.93;97233.13;110173;1246;60494;-65
2022/02/05 04:32:49;;;;;;;14.20;9.40;;;;;;;-4.87;74.25;97241.38;110129;1247;60455;-65
2022/02/05 04:35:24;;;;;;;15.40;10.50;;;;;;;-4.81;73.57;97242.29;110015;1247;71524;-64
2022/02/05 04:37:56;;;;;;;12.60;9.30;;;;;;;-4.81;73.52;97233.98;110122;1247;67736;-64
2022/02/05 04:40:34;;;;;;;15.70;9.70;;;;;;;-4.80;73.31;97230.23;110096;1247;68496;-66
2022/02/05 04:51:27;;;;;;;13.80;10.10;;;;;;;-4.69;75.37;97224.43;110343;1244;68074;-64
2022/02/05 05:07:55;;;;;;;17.40;10.20;;;;;;;-4.38;73.78;97263.23;110199;1247;69381;-64
2022/02/05 05:10:38;;;;;;;18.40;10.20;;;;;;;-4.31;74.49;97252.58;110065;1245;60476;-64
2022/02/05 05:13:20;;;;;;;21.30;14.40;;;;;;;-4.23;73.25;97250.91;110449;1244;60477;-65
2022/02/05 05:21:20;;;;;;;54.70;32.70;;;;;;;-4.13;73.24;97260.61;110321;1244;68605;-65
2022/02/05 05:23:50;;;;;;;30.30;20.00;;;;;;;-4.12;72.61;97261.10;110226;1247;60486;-66
2022/02/05 05:26:19;;;;;;;27.20;16.20;;;;;;;-4.10;72.26;97258.02;110379;1244;60576;-64
2022/02/05 05:28:48;;;;;;;21.20;13.60;;;;;;;-4.06;72.03;97255.58;110066;1247;72642;-64
2022/02/05 05:31:18;;;;;;;17.60;11.10;;;;;;;-4.04;71.90;97256.73;110350;1244;68744;-64
2022/02/05 05:33:48;;;;;;;17.30;13.10;;;;;;;-4.03;71.71;97257.89;110266;1244;69360;-66
2022/02/05 05:36:18;;;;;;;25.80;19.20;;;;;;;-3.99;71.94;97261.74;109990;1247;60521;-64
2022/02/05 05:38:47;;;;;;;24.60;16.50;;;;;;;-3.95;71.75;97260.31;110388;1245;60576;-63
2022/02/05 05:41:17;;;;;;;30.80;21.10;;;;;;;-3.91;72.67;97264.17;110305;1244;72983;-64
2022/02/05 05:44:00;;;;;;;19.50;12.20;;;;;;;-3.89;72.13;97265.65;110339;1244;68559;-66
2022/02/05 05:49:17;;;;;;;20.20;13.90;;;;;;;-3.79;71.40;97262.73;110353;1244;60576;-64
2022/02/05 05:51:48;;;;;;;20.10;13.20;;;;;;;-3.73;71.84;97269.95;110250;1244;60846;-65
2022/02/05 05:54:17;;;;;;;30.70;18.20;;;;;;;-3.67;71.66;97277.34;110045;1247;73069;-65
2022/02/05 05:56:46;;;;;;;21.50;14.60;;;;;;;-3.62;72.59;97280.48;110279;1243;69072;-65
2022/02/05 05:59:16;;;;;;;19.90;13.60;;;;;;;-3.57;72.05;97277.83;110410;1245;69577;-65
2022/02/05 06:01:46;;;;;;;28.40;18.70;;;;;;;-3.50;71.67;97275.67;110308;1245;60553;-65
2022/02/05 06:04:15;;;;;;;20.90;14.10;;;;;;;-3.47;71.72;97274.23;110462;1244;60455;-65
2022/02/05 06:06:44;;;;;;;23.50;14.90;;;;;;;-3.43;71.24;97269.21;110380;1244;72325;-65
2022/02/05 06:09:13;;;;;;;26.70;18.90;;;;;;;-3.41;71.58;97269.52;110440;1244;69037;-65
2022/02/05 06:11:42;;;;;;;25.60;15.50;;;;;;;-3.40;71.20;97274.63;110022;1247;70159;-64
2022/02/05 06:14:16;;;;;;;26.70;19.40;;;;;;;-3.38;71.39;97281.90;110450;1244;60487;-64
2022/02/05 06:16:50;;;;;;;27.60;18.50;;;;;;;-3.35;71.22;97282.36;110323;1244;60506;-65
2022/02/05 06:19:20;;;;;;;33.90;22.50;;;;;;;-3.32;72.52;97278.90;110309;1244;72324;-65
2022/02/05 06:21:51;;;;;;;38.20;23.10;;;;;;;-3.30;72.64;97279.02;110324;1246;68295;-67
2022/02/05 06:24:20;;;;;;;18.30;11.90;;;;;;;-3.24;72.41;97279.41;110114;1247;70584;-66
2022/02/05 06:26:50;;;;;;;15.00;10.60;;;;;;;-3.19;71.60;97281.17;110339;1244;60492;-67
2022/02/05 06:29:19;;;;;;;22.40;19.20;;;;;;;-3.12;71.31;97283.94;109982;1245;60530;-66
2022/02/05 06:31:48;;;;;;;24.40;16.80;;;;;;;-3.07;71.74;97287.94;110387;1244;72383;-67
2022/02/05 06:34:18;;;;;;;25.80;17.40;;;;;;;-3.01;71.35;97289.35;110192;1244;69180;-65
2022/02/05 06:36:48;;;;;;;21.80;16.40;;;;;;;-2.95;71.30;97289.55;110365;1244;70167;-65
2022/02/05 06:39:21;;;;;;;28.90;17.30;;;;;;;-2.88;71.07;97285.84;110298;1245;60526;-65
2022/02/05 06:41:51;;;;;;;26.70;17.80;;;;;;;-2.83;70.78;97282.96;109922;1245;60478;-65
2022/02/05 06:44:23;;;;;;;24.80;16.40;;;;;;;-2.79;70.48;97283.58;110214;1246;71520;-65
2022/02/05 06:46:56;;;;;;;29.70;20.30;;;;;;;-2.76;70.05;97284.21;109924;1247;68629;-65
2022/02/05 06:49:26;;;;;;;36.60;23.90;;;;;;;-2.73;70.71;97283.79;110129;1247;69390;-65
2022/02/05 06:51:56;;;;;;;26.20;18.30;;;;;;;-2.69;70.65;97277.71;110334;1244;60530;-66
2022/02/05 06:54:25;;;;;;;51.30;32.10;;;;;;;-2.63;71.16;97272.46;110329;1245;60504;-65
2022/02/05 06:56:57;;;;;;;26.60;19.60;;;;;;;-2.58;72.40;97283.45;110184;1246;72900;-65
2022/02/05 06:59:26;;;;;;;31.20;20.30;;;;;;;-2.52;71.12;97285.54;110281;1244;69213;-65
2022/02/05 07:01:55;;;;;;;30.60;20.90;;;;;;;-2.47;71.51;97283.89;109684;1244;839327;-65
2022/02/05 07:04:27;;;;;;;88.50;42.80;;;;;;;-2.47;71.78;97284.91;110152;1247;60625;-66
2022/02/05 07:06:58;;;;;;;51.60;29.00;;;;;;;-2.43;71.75;97285.33;110349;1244;60497;-66
2022/02/05 07:09:28;;;;;;;44.10;25.80;;;;;;;-2.36;71.90;97285.51;110079;1247;71701;-66
2022/02/05 07:11:59;;;;;;;31.10;18.60;;;;;;;-2.29;72.34;97282.79;110352;1244;67760;-66
2022/02/05 07:14:36;;;;;;;20.60;13.40;;;;;;;-2.19;71.38;97283.91;110268;1244;68682;-65
2022/02/05 07:17:15;;;;;;;18.30;13.20;;;;;;;-2.11;70.98;97287.64;110029;1244;60544;-67
2022/02/05 07:20:13;;;;;;;29.40;19.10;;;;;;;-2.04;70.52;97282.69;110410;1247;60528;-66
2022/02/05 07:23:19;;;;;;;32.40;21.80;;;;;;;-1.97;70.73;97281.48;110265;1246;71553;-65
2022/02/05 07:31:15;;;;;;;24.90;17.20;;;;;;;-1.82;70.35;97279.22;110051;1244;60576;-66
2022/02/05 07:33:45;;;;;;;26.50;18.30;;;;;;;-1.78;70.17;97276.39;110272;1244;60497;-65
2022/02/05 07:36:16;;;;;;;35.10;24.70;;;;;;;-1.73;70.09;97276.61;110225;1246;72731;-65
2022/02/05 07:38:47;;;;;;;26.40;19.10;;;;;;;-1.68;70.09;97279.03;110141;1244;68622;-66
2022/02/05 07:41:16;;;;;;;70.20;47.00;;;;;;;-1.63;70.22;97267.11;109892;1246;69487;-66
2022/02/05 07:43:46;;;;;;;44.60;32.60;;;;;;;-1.60;71.13;97272.69;110336;1244;60556;-66
2022/02/05 07:46:16;;;;;;;45.90;32.40;;;;;;;-1.56;70.53;97272.20;110345;1244;60430;-66
2022/02/05 07:48:46;;;;;;;35.80;26.60;;;;;;;-1.49;70.43;97271.52;110065;1247;72326;-65
2022/02/05 07:51:15;;;;;;;29.30;21.50;;;;;;;-1.41;70.10;97271.98;110479;1244;67875;-66
2022/02/05 07:53:45;;;;;;;31.40;20.60;;;;;;;-1.33;70.09;97267.65;110335;1244;69341;-65
2022/02/05 07:56:15;;;;;;;64.00;41.00;;;;;;;-1.23;69.79;97262.92;109991;1247;60537;-65
2022/02/05 07:58:44;;;;;;;44.80;31.60;;;;;;;-1.13;70.26;97256.50;110215;1246;60481;-65
2022/02/05 08:01:14;;;;;;;50.00;37.50;;;;;;;-1.07;69.46;97248.44;109953;1247;72351;-66
2022/02/05 08:03:43;;;;;;;56.50;34.40;;;;;;;-1.00;69.29;97246.39;110053;1247;67561;-66
2022/02/05 08:06:16;;;;;;;76.40;48.70;;;;;;;-0.95;68.81;97227.22;110101;1247;69494;-66
2022/02/05 08:08:47;;;;;;;60.30;42.00;;;;;;;-0.90;68.80;97236.84;110109;1247;60513;-65
2022/02/05 08:11:20;;;;;;;94.50;60.00;;;;;;;-0.86;68.82;97242.54;110025;1247;60493;-64
2022/02/05 08:13:51;;;;;;;78.50;48.70;;;;;;;-0.83;68.87;97246.39;109986;1247;72435;-65
2022/02/05 08:18:56;;;;;;;78.00;45.30;;;;;;;-0.74;68.83;97255.52;110288;1246;69381;-65
2022/02/05 08:21:25;;;;;;;58.30;33.50;;;;;;;-0.70;68.76;97263.29;110174;1247;60488;-64
2022/02/05 08:23:54;;;;;;;42.20;28.60;;;;;;;-0.61;68.58;97261.09;110179;1247;60454;-65
2022/02/05 08:26:28;;;;;;;38.00;22.30;;;;;;;-0.52;67.60;97265.12;110111;1246;73683;-65
2022/02/05 08:29:02;;;;;;;36.70;21.40;;;;;;;-0.44;67.66;97262.65;110273;1247;68986;-65
2022/02/05 08:31:31;;;;;;;70.90;43.50;;;;;;;-0.37;67.66;97260.04;110207;1247;69359;-65
2022/02/05 08:34:00;;;;;;;55.10;39.00;;;;;;;-0.38;68.25;97259.55;110075;1247;60483;-67
2022/02/05 08:36:40;;;;;;;65.00;45.10;;;;;;;-0.41;68.46;97258.61;110077;1247;60522;-67
2022/02/05 08:39:10;;;;;;;69.60;48.20;;;;;;;-0.45;68.19;97256.34;110098;1246;72320;-65
2022/02/05 08:41:41;;;;;;;71.40;47.30;;;;;;;-0.49;68.62;97257.66;109830;1250;69001;-65
2022/02/05 08:44:14;;;;;;;75.00;46.70;;;;;;;-0.50;68.27;97259.41;110065;1247;69670;-65
2022/02/05 08:46:44;;;;;;;69.40;47.80;;;;;;;-0.57;67.87;97259.79;109839;1247;60584;-65
2022/02/05 08:49:14;;;;;;;51.60;34.70;;;;;;;-0.60;67.82;97256.82;110080;1247;60437;-65
2022/02/05 08:51:43;;;;;;;;;;;;;;;-0.54;67.34;97256.11;110117;1247;72757;-65
2022/02/05 08:54:12;;;;;;;46.50;32.70;;;;;;;-0.46;67.07;97261.50;110024;1247;67877;-65
2022/02/05 08:56:41;;;;;;;36.40;24.50;;;;;;;-0.33;67.23;97267.10;110105;1247;68630;-65
2022/02/05 08:59:10;;;;;;;35.40;25.00;;;;;;;-0.17;67.13;97271.04;109840;1247;60573;-65
2022/02/05 09:01:49;;;;;;;46.50;30.80;;;;;;;-0.03;66.91;97267.84;110143;1247;60903;-65
2022/02/05 09:06:50;;;;;;;60.50;40.90;;;;;;;0.18;66.63;97282.57;110500;1245;69462;-65
2022/02/05 09:14:42;;;;;;;55.70;38.20;;;;;;;0.43;66.37;97282.06;110391;1247;60799;-65
2022/02/05 09:17:12;;;;;;;47.90;32.80;;;;;;;0.49;65.91;97279.80;110133;1247;71564;-65
2022/02/05 09:19:42;;;;;;;61.30;42.30;;;;;;;0.53;65.66;97278.48;110084;1247;69238;-64
2022/02/05 09:22:11;;;;;;;;;;;;;;;0.55;65.82;97277.70;110441;1246;69361;-64
2022/02/05 09:24:41;;;;;;;68.10;43.20;;;;;;;0.57;65.83;97268.88;110317;1247;60418;-64
2022/02/05 09:27:12;;;;;;;64.90;44.50;;;;;;;0.58;65.69;97272.63;110288;1246;60502;-66
2022/02/05 09:30:04;;;;;;;53.30;37.00;;;;;;;0.57;65.96;97274.71;110364;1247;72908;-65
2022/02/05 09:32:31;;;;;;;43.40;30.80;;;;;;;0.61;65.94;97273.54;110251;1247;68848;-65
2022/02/05 09:35:00;;;;;;;38.40;24.60;;;;;;;0.66;65.89;97268.40;110323;1246;69920;-65
2022/02/05 09:37:29;;;;;;;46.10;34.50;;;;;;;0.72;65.55;97260.97;110444;1246;60883;-65
2022/02/05 09:39:58;;;;;;;51.20;36.00;;;;;;;0.78;65.19;97254.06;110134;1247;60517;-65
2022/02/05 09:42:27;;;;;;;53.80;38.10;;;;;;;0.84;65.21;97253.16;110245;1245;72786;-65
2022/02/05 09:45:03;;;;;;;69.00;48.60;;;;;;;0.89;65.07;97252.96;110413;1246;66815;-65
2022/02/05 09:47:32;;;;;;;92.10;61.50;;;;;;;0.97;65.15;97252.34;110526;1246;69906;-65
2022/02/05 09:50:01;;;;;;;82.10;56.90;;;;;;;1.05;64.19;97246.90;110394;1245;60557;-65
2022/02/05 09:52:30;;;;;;;69.60;48.50;;;;;;;1.14;62.95;97240.88;110426;1247;60478;-65
2022/02/05 09:54:59;;;;;;;69.60;45.80;;;;;;;1.28;63.16;97229.38;110312;1246;71610;-65
2022/02/05 09:57:28;;;;;;;66.30;44.70;;;;;;;1.37;60.75;97237.09;110408;1245;69445;-65
2022/02/05 10:00:00;;;;;;;62.20;42.70;;;;;;;1.46;62.18;97250.83;110182;1246;69450;-65
2022/02/05 10:02:37;;;;;;;52.50;35.60;;;;;;;1.57;61.30;97251.95;110222;1247;60456;-65
2022/02/05 10:05:10;;;;;;;40.30;27.90;;;;;;;1.66;61.67;97252.78;110195;1247;60485;-64
2022/02/05 10:08:09;;;;;;;50.50;31.90;;;;;;;1.76;61.12;97247.75;110323;1246;72889;-66
2022/02/05 10:10:44;;;;;;;46.20;30.20;;;;;;;1.83;58.74;97238.55;110282;1246;68584;-65
2022/02/05 10:13:18;;;;;;;54.80;37.80;;;;;;;1.90;59.99;97239.94;109919;1247;69421;-65
2022/02/05 10:15:52;;;;;;;42.00;28.50;;;;;;;1.96;59.05;97250.73;110336;1246;60931;-65
2022/02/05 10:18:26;;;;;;;57.60;38.90;;;;;;;2.00;58.98;97255.73;110067;1247;60497;-65
2022/02/05 10:21:00;;;;;;;53.20;37.40;;;;;;;1.98;56.80;97261.46;110089;1247;72836;-65
2022/02/05 10:23:31;;;;;;;43.50;30.30;;;;;;;1.97;58.30;97269.58;110348;1246;68405;-65
2022/02/05 10:26:00;;;;;;;50.70;32.40;;;;;;;1.86;55.59;97265.04;110139;1246;69402;-65
2022/02/05 10:28:29;;;;;;;39.40;25.10;;;;;;;1.78;54.86;97259.19;110154;1247;60416;-65
2022/02/05 10:30:59;;;;;;;39.80;26.10;;;;;;;1.81;57.19;97250.29;110204;1246;60491;-65
2022/02/05 10:33:32;;;;;;;43.80;28.90;;;;;;;1.90;57.79;97245.98;110315;1247;72363;-65
2022/02/05 10:36:13;;;;;;;38.00;28.00;;;;;;;2.04;57.74;97240.75;110306;1246;67852;-65
2022/02/05 10:44:21;;;;;;;27.40;18.60;;;;;;;3.49;56.01;97241.71;110370;1247;60499;-65
2022/02/05 10:46:55;;;;;;;39.10;27.40;;;;;;;3.86;54.16;97246.72;110370;1246;72978;-65
2022/02/05 10:49:50;;;;;;;34.30;22.10;;;;;;;3.98;53.00;97250.41;110209;1247;68447;-66
2022/02/05 10:52:27;;;;;;;30.20;21.30;;;;;;;4.03;54.15;97258.98;110175;1247;70007;-66
2022/02/05 10:55:07;;;;;;;26.60;18.10;;;;;;;4.06;54.53;97260.20;110226;1247;60582;-66
2022/02/05 10:57:53;;;;;;;23.40;14.60;;;;;;;4.05;53.34;97263.15;110090;1247;60506;-65
2022/02/05 11:05:51;;;;;;;23.20;15.40;;;;;;;3.99;50.57;97256.41;110183;1247;69410;-67
2022/02/05 11:08:22;;;;;;;20.30;15.50;;;;;;;4.01;51.40;97259.56;110241;1246;60551;-67
2022/02/05 11:18:58;;;;;;;24.20;17.20;;;;;;;5.93;51.13;97232.31;110096;1247;69882;-65
2022/02/05 11:21:48;;;;;;;21.90;16.00;;;;;;;7.28;45.86;97226.52;110045;1247;60538;-65
2022/02/05 11:24:21;;;;;;;19.30;13.60;;;;;;;8.23;45.41;97224.45;110105;1247;60986;-66
2022/02/05 11:26:51;;;;;;;22.40;17.00;;;;;;;9.18;43.29;97222.80;110508;1246;71464;-66
2022/02/05 11:29:27;;;;;;;;;;;;;;;10.08;35.48;97217.61;110586;1244;69105;-66
2022/02/05 11:32:31;;;;;;;20.60;15.80;;;;;;;11.06;38.99;97219.07;110581;1244;69944;-65
2022/02/05 11:35:07;;;;;;;21.90;15.40;;;;;;;12.31;36.79;97217.61;110553;1244;60486;-66
2022/02/05 11:38:03;;;;;;;21.30;15.10;;;;;;;12.80;33.79;97213.28;110179;1244;60515;-66
2022/02/05 11:40:43;;;;;;;23.50;15.60;;;;;;;13.42;34.76;97214.83;110412;1244;72719;-66
2022/02/05 11:43:32;;;;;;;24.00;16.00;;;;;;;13.61;31.56;97208.77;110421;1244;69188;-66
2022/02/05 11:46:07;;;;;;;17.20;12.70;;;;;;;13.81;29.57;97205.23;110471;1244;68625;-66
2022/02/05 11:48:59;;;;;;;15.60;11.70;;;;;;;14.82;31.18;97194.13;110478;1244;60845;-66
2022/02/05 11:51:32;;;;;;;12.50;9.80;;;;;;;15.91;28.84;97179.98;110447;1244;60406;-66
2022/02/05 11:54:05;;;;;;;15.50;11.00;;;;;;;16.92;28.89;97193.48;110364;1244;72756;-66
2022/02/05 11:56:57;;;;;;;14.00;11.30;;;;;;;17.89;28.25;97210.20;110406;1244;68928;-66
2022/02/05 11:59:55;;;;;;;17.30;15.30;;;;;;;18.31;26.58;97221.98;110384;1246;68826;-66
2022/02/05 12:02:38;;;;;;;20.00;16.30;;;;;;;16.41;24.12;97221.14;110513;1244;60491;-68
2022/02/05 12:05:25;;;;;;;16.80;12.20;;;;;;;15.48;25.84;97224.06;110555;1244;60426;-67
2022/02/05 12:08:03;;;;;;;13.30;10.90;;;;;;;15.36;28.74;97238.86;110588;1244;72945;-67
2022/02/05 12:10:44;;;;;;;12.20;10.40;;;;;;;14.61;28.24;97239.98;110582;1244;67665;-67
2022/02/05 12:13:27;;;;;;;15.40;11.10;;;;;;;14.11;28.82;97234.79;110600;1244;69822;-67
2022/02/05 12:15:55;;;;;;;17.00;12.90;;;;;;;13.35;28.90;97244.86;110563;1244;60465;-66
2022/02/05 12:18:27;;;;;;;18.00;14.30;;;;;;;12.07;29.75;97242.21;110507;1244;60532;-66
2022/02/05 12:25:58;;;;;;;13.20;11.30;;;;;;;9.47;33.92;97234.86;110492;1244;68719;-66
2022/02/05 12:28:40;;;;;;;21.00;14.30;;;;;;;9.41;34.53;97235.35;110456;1244;60512;-66
2022/02/05 12:31:18;;;;;;;19.80;15.30;;;;;;;8.38;36.42;97231.39;110438;1244;60888;-66
2022/02/05 12:33:59;;;;;;;20.60;16.00;;;;;;;8.24;37.19;97227.98;110491;1244;72365;-67
2022/02/05 12:36:33;;;;;;;20.60;16.40;;;;;;;8.11;37.31;97221.22;110556;1244;69083;-67
2022/02/05 12:39:04;;;;;;;17.70;13.20;;;;;;;8.14;37.55;97225.35;110357;1244;70371;-66
2022/02/05 12:41:35;;;;;;;19.90;14.20;;;;;;;9.52;35.46;97222.99;110335;1244;60430;-66
2022/02/05 12:44:07;;;;;;;15.10;11.90;;;;;;;10.66;34.04;97224.71;110436;1244;60457;-66
2022/02/05 12:46:46;;;;;;;13.00;9.10;;;;;;;12.03;32.49;97227.57;110453;1244;73004;-69
2022/02/05 12:49:26;;;;;;;15.70;12.10;;;;;;;13.64;29.24;97223.21;110599;1244;69049;-69
2022/02/05 12:51:58;;;;;;;13.60;11.60;;;;;;;14.90;27.50;97223.36;110512;1244;69825;-69
2022/02/05 12:54:29;;;;;;;13.60;10.50;;;;;;;16.11;26.10;97222.88;110479;1244;60531;-68
2022/02/05 12:56:59;;;;;;;13.00;10.60;;;;;;;17.20;26.33;97223.42;110596;1245;60502;-66
2022/02/05 12:59:31;;;;;;;15.70;12.70;;;;;;;18.27;25.45;97233.84;110567;1244;70690;-66
2022/02/05 13:02:02;;;;;;;12.80;9.60;;;;;;;18.89;23.26;97232.79;110572;1244;68587;-66
2022/02/05 13:04:34;;;;;;;15.10;11.40;;;;;;;19.44;21.75;97233.77;110538;1244;68574;-67
2022/02/05 13:07:02;;;;;;;12.80;10.20;;;;;;;19.90;22.71;97240.08;110602;1244;60524;-66
2022/02/05 13:09:46;;;;;;;11.30;8.80;;;;;;;20.11;23.07;97233.11;110596;1244;60475;-67
2022/02/05 13:12:22;;;;;;;14.80;10.50;;;;;;;20.94;22.49;97235.52;110580;1244;72995;-68
2022/02/05 13:15:17;;;;;;;12.80;9.90;;;;;;;21.49;20.70;97236.75;110560;1244;69585;-67
2022/02/05 13:18:07;;;;;;;16.30;13.50;;;;;;;21.64;21.15;97233.59;110509;1242;69577;-67
2022/02/05 13:29:17;;;;;;;12.40;8.70;;;;;;;18.03;24.45;97241.70;110622;1244;68914;-67
2022/02/05 13:34:34;;;;;;;12.20;10.10;;;;;;;16.08;26.70;97253.92;110580;1244;60502;-66
2022/02/05 13:37:24;;;;;;;13.20;11.00;;;;;;;15.32;27.29;97255.44;110454;1244;60501;-66
2022/02/05 13:40:02;;;;;;;14.20;11.00;;;;;;;14.48;28.45;97250.78;110466;1244;72273;-66
2022/02/05 13:42:36;;;;;;;13.50;10.10;;;;;;;13.84;29.48;97254.55;110125;1245;68160;-66
2022/02/05 13:45:12;;;;;;;16.90;13.80;;;;;;;13.66;30.00;97258.05;110159;1245;69845;-66
2022/02/05 13:47:44;;;;;;;28.80;22.70;;;;;;;13.21;30.30;97259.17;110317;1245;60565;-66
2022/02/05 13:50:24;;;;;;;30.10;23.70;;;;;;;12.87;30.95;97255.79;110447;1245;60729;-66
2022/02/05 13:53:06;;;;;;;31.20;24.00;;;;;;;12.37;31.80;97252.61;110415;1243;72985;-66
2022/02/05 13:55:44;;;;;;;23.00;17.90;;;;;;;11.68;32.52;97250.68;110278;1244;68989;-66
2022/02/05 13:58:14;;;;;;;22.60;18.20;;;;;;;11.02;33.58;97248.52;110602;1244;68734;-66
2022/02/05 14:00:56;;;;;;;26.60;21.60;;;;;;;10.49;34.33;97248.14;110582;1244;60880;-66
2022/02/05 14:03:28;;;;;;;37.50;29.50;;;;;;;9.91;35.22;97244.05;110238;1247;60531;-66
2022/02/05 14:06:23;;;;;;;29.40;22.60;;;;;;;9.43;36.12;97251.52;110396;1246;72151;-67
2022/02/05 14:08:55;;;;;;;33.30;25.10;;;;;;;8.98;36.89;97258.48;110193;1247;69176;-66
2022/02/05 14:11:33;;;;;;;30.70;23.60;;;;;;;8.64;37.56;97265.34;110216;1247;69420;-68
2022/02/05 14:14:07;;;;;;;42.40;33.60;;;;;;;8.23;38.21;97264.01;110477;1244;60534;-68
2022/02/05 14:16:39;;;;;;;44.40;32.40;;;;;;;7.68;39.26;97261.11;110610;1244;60600;-66
2022/02/05 14:19:08;;;;;;;50.00;35.60;;;;;;;7.29;40.21;97266.36;110194;1247;72245;-66
2022/02/05 14:21:48;;;;;;;44.30;30.80;;;;;;;6.68;42.43;97266.77;110211;1246;68669;-68
2022/02/05 14:24:23;;;;;;;47.10;30.90;;;;;;;6.38;42.16;97274.08;110552;1244;70088;-69
2022/02/05 14:27:06;;;;;;;41.60;30.50;;;;;;;6.15;42.80;97279.87;110606;1244;60869;-68
2022/02/05 14:30:18;;;;;;;39.70;28.90;;;;;;;5.87;43.71;97288.73;110586;1243;60479;-66
2022/02/05 14:40:41;;;;;;;45.30;31.00;;;;;;;5.35;44.53;97297.60;110295;1247;60537;-68
2022/02/05 14:43:11;;;;;;;61.30;38.50;;;;;;;5.15;44.97;97296.59;110359;1247;60836;-66
2022/02/05 14:45:39;;;;;;;65.50;41.00;;;;;;;5.01;45.10;97303.73;110533;1244;72883;-66